Time;durP1;ratioP1;P1;durP2;ratioP2;P2;SDS_P1;SDS_P2;PMS_P1;PMS_P2;Temp;Humidity;BMP_temperature;BMP_pressure;BME280_temperature;BME280_humidity;BME280_pressure;Samples;Min_cycle;Max_cycle;Signal;HPM_P1;HPM_P2
2023/08/13 00:00:16;;;;;;;7.95;5.30;;;;;;;;;;5033703;28;20144;-76
2023/08/13 00:02:43;;;;;;;6.53;5.47;;;;;;;;;;5032909;28;20131;-77
2023/08/13 00:05:10;;;;;;;6.45;5.63;;;;;;;;;;5033144;28;20041;-77
2023/08/13 00:07:37;;;;;;;8.80;5.95;;;;;;;;;;5032987;28;20091;-77
2023/08/13 00:10:04;;;;;;;7.15;5.80;;;;;;;;;;5033039;28;20055;-78
2023/08/13 00:12:32;;;;;;;6.68;5.43;;;;;;;;;;5032545;28;20057;-76
2023/08/13 00:14:58;;;;;;;10.50;6.65;;;;;;;;;;5032801;28;20060;-76
2023/08/13 00:17:25;;;;;;;7.50;5.97;;;;;;;;;;5032717;28;20342;-77
2023/08/13 00:19:52;;;;;;;7.13;5.60;;;;;;;;;;5032476;28;20046;-76
2023/08/13 00:22:18;;;;;;;7.22;5.75;;;;;;;;;;5031815;28;20064;-77
2023/08/13 00:24:45;;;;;;;7.15;6.45;;;;;;;;;;5032077;28;20103;-77
2023/08/13 00:27:12;;;;;;;7.82;6.65;;;;;;;;;;5050477;22;20296;-79
2023/08/13 00:29:40;;;;;;;8.18;6.40;;;;;;;;;;5029823;28;20487;-79
2023/08/13 00:32:07;;;;;;;7.38;5.90;;;;;;;;;;5036311;28;20049;-79
2023/08/13 00:34:34;;;;;;;6.65;5.95;;;;;;;;;;5037583;28;20042;-79
2023/08/13 00:37:00;;;;;;;7.72;6.05;;;;;;;;;;5039022;28;20124;-80
2023/08/13 00:39:27;;;;;;;7.60;6.15;;;;;;;;;;5039999;28;20057;-79
2023/08/13 00:41:53;;;;;;;7.97;6.32;;;;;;;;;;5039921;28;20136;-79
2023/08/13 00:44:20;;;;;;;8.02;6.32;;;;;;;;;;5039925;28;20061;-79
2023/08/13 00:46:49;;;;;;;6.18;5.50;;;;;;;;;;5039615;28;20049;-79
2023/08/13 00:49:15;;;;;;;9.02;5.32;;;;;;;;;;5034879;28;20042;-79
2023/08/13 00:51:42;;;;;;;6.63;5.47;;;;;;;;;;5037886;28;20076;-79
2023/08/13 00:54:09;;;;;;;7.45;5.53;;;;;;;;;;5038208;28;20061;-79
2023/08/13 00:56:36;;;;;;;7.18;5.97;;;;;;;;;;5037264;28;20056;-79
2023/08/13 00:59:05;;;;;;;7.30;5.85;;;;;;;;;;5037418;28;20053;-80
2023/08/13 01:01:32;;;;;;;7.03;6.13;;;;;;;;;;5037593;28;20064;-79
2023/08/13 01:04:00;;;;;;;7.40;6.55;;;;;;;;;;5037268;28;20049;-80
2023/08/13 01:06:37;;;;;;;7.57;5.45;;;;;;;;;;5037166;28;20073;-79
2023/08/13 01:09:08;;;;;;;6.43;5.78;;;;;;;;;;5037574;28;20109;-78
2023/08/13 01:11:46;;;;;;;6.80;5.90;;;;;;;;;;5037021;28;20053;-78
2023/08/13 01:14:20;;;;;;;7.22;5.47;;;;;;;;;;5036265;28;20148;-79
2023/08/13 01:16:48;;;;;;;6.18;5.10;;;;;;;;;;5036350;28;20079;-80
2023/08/13 01:19:17;;;;;;;7.82;5.80;;;;;;;;;;5038066;28;20076;-79
2023/08/13 01:21:44;;;;;;;6.95;5.50;;;;;;;;;;5040601;28;20504;-79
2023/08/13 01:24:12;;;;;;;6.85;5.72;;;;;;;;;;5040471;28;20041;-79
2023/08/13 01:26:47;;;;;;;7.90;5.63;;;;;;;;;;5041855;28;20508;-80
2023/08/13 01:29:19;;;;;;;7.55;5.50;;;;;;;;;;5040304;28;20069;-79
2023/08/13 01:31:49;;;;;;;6.68;5.30;;;;;;;;;;5036739;28;20049;-79
2023/08/13 01:34:17;;;;;;;5.93;4.93;;;;;;;;;;5035588;28;20136;-79
2023/08/13 01:36:45;;;;;;;6.80;4.88;;;;;;;;;;5038965;28;20045;-78
2023/08/13 01:39:14;;;;;;;6.53;5.45;;;;;;;;;;5040465;28;20072;-78
2023/08/13 01:41:45;;;;;;;6.53;5.50;;;;;;;;;;5039922;28;20140;-79
2023/08/13 01:44:12;;;;;;;7.72;5.32;;;;;;;;;;5039751;28;20049;-78
2023/08/13 01:46:39;;;;;;;7.60;5.95;;;;;;;;;;5039414;28;20389;-79
2023/08/13 01:49:06;;;;;;;6.93;5.18;;;;;;;;;;5039818;28;20068;-79
2023/08/13 01:51:32;;;;;;;6.85;5.20;;;;;;;;;;5039540;28;20590;-79
2023/08/13 01:53:59;;;;;;;6.88;4.85;;;;;;;;;;5039878;28;20132;-79
2023/08/13 01:56:27;;;;;;;7.05;4.68;;;;;;;;;;5039770;28;20053;-79
2023/08/13 01:58:54;;;;;;;6.72;4.63;;;;;;;;;;5040956;28;20053;-79
2023/08/13 02:01:20;;;;;;;5.85;4.70;;;;;;;;;;5039946;28;20464;-78
2023/08/13 02:03:47;;;;;;;6.05;4.43;;;;;;;;;;5039392;28;20096;-78
2023/08/13 02:06:14;;;;;;;6.10;4.20;;;;;;;;;;5040345;28;20500;-79
2023/08/13 02:08:41;;;;;;;5.75;4.45;;;;;;;;;;5040392;28;20420;-79
2023/08/13 02:11:07;;;;;;;6.60;4.38;;;;;;;;;;5041856;28;20512;-80
2023/08/13 02:13:35;;;;;;;6.78;4.78;;;;;;;;;;5042146;28;20068;-79
2023/08/13 02:16:03;;;;;;;6.75;4.65;;;;;;;;;;5041029;28;20157;-79
2023/08/13 02:18:29;;;;;;;9.65;5.50;;;;;;;;;;5041851;28;20076;-79
2023/08/13 02:20:56;;;;;;;5.45;4.68;;;;;;;;;;5042769;28;20140;-79
2023/08/13 02:23:23;;;;;;;5.75;4.55;;;;;;;;;;5039539;28;20045;-79
2023/08/13 02:25:50;;;;;;;6.20;4.57;;;;;;;;;;5039980;28;20069;-79
2023/08/13 02:28:17;;;;;;;6.78;4.90;;;;;;;;;;5039077;28;20136;-79
2023/08/13 02:30:45;;;;;;;6.20;4.60;;;;;;;;;;5038410;28;20107;-79
2023/08/13 02:33:11;;;;;;;6.97;4.82;;;;;;;;;;5039894;28;20415;-79
2023/08/13 02:35:38;;;;;;;6.78;4.65;;;;;;;;;;5040366;28;20057;-79
2023/08/13 02:38:05;;;;;;;6.97;4.57;;;;;;;;;;5052071;28;20076;-79
2023/08/13 02:40:31;;;;;;;6.18;4.28;;;;;;;;;;5042737;28;20055;-79
2023/08/13 02:42:58;;;;;;;6.68;4.85;;;;;;;;;;5038156;28;20069;-79
2023/08/13 02:45:25;;;;;;;9.15;4.63;;;;;;;;;;5038842;28;20048;-79
2023/08/13 02:47:53;;;;;;;6.25;4.65;;;;;;;;;;5039241;28;20494;-78
2023/08/13 02:50:19;;;;;;;6.63;5.07;;;;;;;;;;5039874;28;20153;-78
2023/08/13 02:52:46;;;;;;;5.75;4.50;;;;;;;;;;5039901;28;20508;-79
2023/08/13 02:55:13;;;;;;;6.97;4.82;;;;;;;;;;5039688;28;20096;-79
2023/08/13 02:57:39;;;;;;;7.65;4.82;;;;;;;;;;5040931;28;20061;-79
2023/08/13 03:00:07;;;;;;;6.68;4.80;;;;;;;;;;5040952;28;20096;-79
2023/08/13 03:02:34;;;;;;;6.63;4.38;;;;;;;;;;5040048;28;20508;-77
2023/08/13 03:05:02;;;;;;;9.13;4.60;;;;;;;;;;5039145;28;20108;-79
2023/08/13 03:07:29;;;;;;;6.32;4.60;;;;;;;;;;5039213;28;20468;-79
2023/08/13 03:09:55;;;;;;;6.72;5.13;;;;;;;;;;5038141;28;20455;-78
2023/08/13 03:12:22;;;;;;;6.45;4.85;;;;;;;;;;5039021;28;20049;-80
2023/08/13 03:14:49;;;;;;;7.13;4.90;;;;;;;;;;5039415;28;20061;-77
2023/08/13 03:17:16;;;;;;;8.05;4.60;;;;;;;;;;5039649;28;20076;-78
2023/08/13 03:19:42;;;;;;;7.20;4.82;;;;;;;;;;5039950;28;20110;-79
2023/08/13 03:22:10;;;;;;;7.97;5.25;;;;;;;;;;5039897;28;20117;-79
2023/08/13 03:24:37;;;;;;;6.43;5.00;;;;;;;;;;5040075;28;20042;-79
2023/08/13 03:27:04;;;;;;;7.22;5.45;;;;;;;;;;5041790;28;20057;-79
2023/08/13 03:29:31;;;;;;;6.55;5.38;;;;;;;;;;5039367;28;20053;-79
2023/08/13 03:31:58;;;;;;;7.47;4.93;;;;;;;;;;5039800;28;20423;-77
2023/08/13 03:34:24;;;;;;;8.57;5.03;;;;;;;;;;5038482;28;20053;-78
2023/08/13 03:36:52;;;;;;;6.25;5.13;;;;;;;;;;5039208;28;20108;-77
2023/08/13 03:39:20;;;;;;;7.80;5.13;;;;;;;;;;5039955;28;20482;-79
2023/08/13 03:41:47;;;;;;;6.88;5.13;;;;;;;;;;5038501;28;20076;-79
2023/08/13 03:44:14;;;;;;;6.97;5.18;;;;;;;;;;5038727;28;20049;-79
2023/08/13 03:46:40;;;;;;;7.55;5.30;;;;;;;;;;5039183;28;20304;-79
2023/08/13 03:49:07;;;;;;;7.95;5.20;;;;;;;;;;5039327;28;20069;-79
2023/08/13 03:51:34;;;;;;;8.05;5.53;;;;;;;;;;5038414;28;20046;-79
2023/08/13 03:54:00;;;;;;;8.02;5.80;;;;;;;;;;5038651;28;20136;-79
2023/08/13 03:56:28;;;;;;;7.22;5.68;;;;;;;;;;5039431;28;20073;-79
2023/08/13 03:58:55;;;;;;;8.07;5.40;;;;;;;;;;5039016;28;20120;-79
2023/08/13 04:01:22;;;;;;;8.05;5.47;;;;;;;;;;5038178;28;20476;-79
2023/08/13 04:03:48;;;;;;;6.32;5.20;;;;;;;;;;5038944;28;20046;-79
2023/08/13 04:06:15;;;;;;;8.88;5.72;;;;;;;;;;5038946;28;20050;-79
2023/08/13 04:08:42;;;;;;;7.05;5.53;;;;;;;;;;5038322;28;20049;-79
2023/08/13 04:11:08;;;;;;;7.85;5.72;;;;;;;;;;5038949;28;20504;-79
2023/08/13 04:13:36;;;;;;;7.30;5.80;;;;;;;;;;5037681;28;20052;-78
2023/08/13 04:16:03;;;;;;;8.30;5.53;;;;;;;;;;5036403;28;20051;-79
2023/08/13 04:18:30;;;;;;;7.10;5.22;;;;;;;;;;5039386;28;20118;-79
2023/08/13 04:20:56;;;;;;;8.65;5.85;;;;;;;;;;5039996;28;20089;-78
2023/08/13 04:23:23;;;;;;;6.80;5.60;;;;;;;;;;5037113;28;20107;-79
2023/08/13 04:25:50;;;;;;;9.10;5.53;;;;;;;;;;5036856;28;20137;-79
2023/08/13 04:28:17;;;;;;;7.97;5.63;;;;;;;;;;5037255;28;20327;-78
2023/08/13 04:30:45;;;;;;;8.07;5.65;;;;;;;;;;5037270;28;20049;-79
2023/08/13 04:33:11;;;;;;;9.65;5.90;;;;;;;;;;5037482;28;20492;-79
2023/08/13 04:35:38;;;;;;;7.60;5.45;;;;;;;;;;5037465;28;20069;-78
2023/08/13 04:38:05;;;;;;;7.13;5.45;;;;;;;;;;5037510;28;20045;-79
2023/08/13 04:40:31;;;;;;;8.10;5.82;;;;;;;;;;5037563;28;20069;-78
2023/08/13 04:42:58;;;;;;;8.35;5.60;;;;;;;;;;5036763;28;20137;-78
2023/08/13 04:45:25;;;;;;;7.43;5.35;;;;;;;;;;5036877;28;20045;-78
2023/08/13 04:47:53;;;;;;;8.00;6.03;;;;;;;;;;5037656;28;20113;-78
2023/08/13 04:50:19;;;;;;;7.15;5.63;;;;;;;;;;5037093;28;20061;-79
2023/08/13 04:52:46;;;;;;;7.20;5.63;;;;;;;;;;5037228;28;20045;-79
2023/08/13 04:55:12;;;;;;;8.63;6.28;;;;;;;;;;5037337;28;20134;-78
2023/08/13 04:57:39;;;;;;;7.15;5.75;;;;;;;;;;5037487;28;20042;-79
2023/08/13 05:00:08;;;;;;;8.48;5.63;;;;;;;;;;5037514;28;20073;-79
2023/08/13 05:02:35;;;;;;;6.70;5.23;;;;;;;;;;5037194;28;20144;-78
2023/08/13 05:05:04;;;;;;;6.63;5.03;;;;;;;;;;5036351;28;20045;-78
2023/08/13 05:07:31;;;;;;;7.20;5.13;;;;;;;;;;5036252;28;20054;-78
2023/08/13 05:09:57;;;;;;;6.95;4.80;;;;;;;;;;5034028;28;20041;-80
2023/08/13 05:12:24;;;;;;;7.20;5.32;;;;;;;;;;5036343;28;20049;-79
2023/08/13 05:14:50;;;;;;;7.53;5.13;;;;;;;;;;5028391;28;20116;-78
2023/08/13 05:17:18;;;;;;;8.10;5.65;;;;;;;;;;5028371;28;20110;-79
2023/08/13 05:19:45;;;;;;;6.25;4.65;;;;;;;;;;5033682;28;20061;-79
2023/08/13 05:22:13;;;;;;;7.80;4.55;;;;;;;;;;5033777;28;20049;-79
2023/08/13 05:24:40;;;;;;;7.13;4.80;;;;;;;;;;5034452;28;20488;-77
2023/08/13 05:27:06;;;;;;;6.05;4.50;;;;;;;;;;5034889;28;20163;-78
2023/08/13 05:29:33;;;;;;;6.05;4.70;;;;;;;;;;5035058;28;20081;-77
2023/08/13 05:31:59;;;;;;;7.15;4.85;;;;;;;;;;5034639;28;20071;-78
2023/08/13 05:34:26;;;;;;;6.03;4.57;;;;;;;;;;5027611;28;20057;-78
2023/08/13 05:36:53;;;;;;;6.05;4.70;;;;;;;;;;5032050;28;20057;-78
2023/08/13 05:39:22;;;;;;;5.28;4.43;;;;;;;;;;5032862;28;20124;-78
2023/08/13 05:41:49;;;;;;;6.27;4.27;;;;;;;;;;5026781;28;20611;-78
2023/08/13 05:44:15;;;;;;;5.38;4.30;;;;;;;;;;5024995;28;20136;-78
2023/08/13 05:46:42;;;;;;;5.45;4.35;;;;;;;;;;5028911;28;20066;-77
2023/08/13 05:49:08;;;;;;;6.90;4.53;;;;;;;;;;5028647;28;20067;-78
2023/08/13 05:51:35;;;;;;;7.32;4.60;;;;;;;;;;5034289;28;20109;-76
2023/08/13 05:54:02;;;;;;;5.22;3.85;;;;;;;;;;5021158;28;20140;-77
2023/08/13 05:56:30;;;;;;;5.95;4.00;;;;;;;;;;5025970;28;20041;-77
2023/08/13 05:58:56;;;;;;;5.00;4.00;;;;;;;;;;5032280;28;20096;-78
2023/08/13 06:01:23;;;;;;;5.35;4.30;;;;;;;;;;5031774;28;20066;-77
2023/08/13 06:03:50;;;;;;;5.90;4.30;;;;;;;;;;5032992;28;20050;-79
2023/08/13 06:06:18;;;;;;;5.13;4.10;;;;;;;;;;5034090;28;20562;-78
2023/08/13 06:08:45;;;;;;;6.38;4.40;;;;;;;;;;5032299;28;20053;-78
2023/08/13 06:11:12;;;;;;;5.95;4.22;;;;;;;;;;5035502;28;20068;-78
2023/08/13 06:13:40;;;;;;;6.25;4.43;;;;;;;;;;5028373;28;20191;-76
2023/08/13 06:16:07;;;;;;;8.80;6.47;;;;;;;;;;5032290;28;20159;-77
2023/08/13 06:18:34;;;;;;;4.90;4.10;;;;;;;;;;5032735;28;20132;-78
2023/08/13 06:21:03;;;;;;;5.85;4.25;;;;;;;;;;5031027;28;20078;-78
2023/08/13 06:23:30;;;;;;;7.25;4.50;;;;;;;;;;5027011;28;20050;-78
2023/08/13 06:25:57;;;;;;;5.80;4.30;;;;;;;;;;5031815;28;20136;-78
2023/08/13 06:28:24;;;;;;;7.25;4.97;;;;;;;;;;5026854;22;20040;-60
2023/08/13 06:30:52;;;;;;;8.77;4.47;;;;;;;;;;4997554;28;20054;-58
2023/08/13 06:33:19;;;;;;;8.32;4.40;;;;;;;;;;4996522;28;20495;-59
2023/08/13 06:35:46;;;;;;;6.70;4.78;;;;;;;;;;4998281;28;20407;-60
2023/08/13 06:38:13;;;;;;;6.07;5.03;;;;;;;;;;4998136;28;20137;-59
2023/08/13 06:40:40;;;;;;;6.47;5.25;;;;;;;;;;4994684;28;20043;-59
2023/08/13 06:43:07;;;;;;;7.47;5.22;;;;;;;;;;4995278;28;20052;-60
2023/08/13 06:45:33;;;;;;;6.25;4.97;;;;;;;;;;4997545;28;20057;-60
2023/08/13 06:48:04;;;;;;;6.50;5.07;;;;;;;;;;4997701;28;20081;-60
2023/08/13 06:50:32;;;;;;;6.55;5.32;;;;;;;;;;4995643;28;20086;-58
2023/08/13 06:52:59;;;;;;;6.90;5.30;;;;;;;;;;4997873;28;20120;-60
2023/08/13 06:55:26;;;;;;;7.45;5.93;;;;;;;;;;4996733;28;20077;-59
2023/08/13 06:57:52;;;;;;;7.03;4.90;;;;;;;;;;4999664;28;20077;-59
2023/08/13 07:00:20;;;;;;;7.55;5.55;;;;;;;;;;4996088;28;20049;-60
2023/08/13 07:02:46;;;;;;;8.20;5.03;;;;;;;;;;4994085;28;20050;-60
2023/08/13 07:05:16;;;;;;;6.80;5.57;;;;;;;;;;4986120;28;20408;-58
2023/08/13 07:07:43;;;;;;;7.20;5.30;;;;;;;;;;4999399;28;20046;-60
2023/08/13 07:10:10;;;;;;;6.32;5.53;;;;;;;;;;4996230;28;20042;-60
2023/08/13 07:12:37;;;;;;;6.70;5.40;;;;;;;;;;4994213;28;20543;-60
2023/08/13 07:15:05;;;;;;;6.63;4.93;;;;;;;;;;4994821;28;20062;-58
2023/08/13 07:17:31;;;;;;;7.90;5.32;;;;;;;;;;4995935;28;20093;-59
2023/08/13 07:19:58;;;;;;;6.68;5.22;;;;;;;;;;4991501;28;20479;-58
2023/08/13 07:22:27;;;;;;;7.03;4.97;;;;;;;;;;4992152;28;20434;-60
2023/08/13 07:24:54;;;;;;;6.03;4.90;;;;;;;;;;4990748;28;20050;-64
2023/08/13 07:27:21;;;;;;;7.68;4.95;;;;;;;;;;4991334;28;20574;-59
2023/08/13 07:29:47;;;;;;;7.25;4.93;;;;;;;;;;4992176;28;20614;-58
2023/08/13 07:32:14;;;;;;;5.63;4.53;;;;;;;;;;4992481;28;20089;-60
2023/08/13 07:34:41;;;;;;;7.55;4.72;;;;;;;;;;4991273;28;20539;-60
2023/08/13 07:37:07;;;;;;;5.75;4.47;;;;;;;;;;4990303;28;20053;-60
2023/08/13 07:39:35;;;;;;;6.40;4.70;;;;;;;;;;4992797;28;20058;-60
2023/08/13 07:42:03;;;;;;;6.25;4.70;;;;;;;;;;4992188;28;20133;-60
2023/08/13 07:44:29;;;;;;;7.43;4.75;;;;;;;;;;4989327;28;20492;-59
2023/08/13 07:46:58;;;;;;;6.15;4.38;;;;;;;;;;4991753;28;20530;-60
2023/08/13 07:49:25;;;;;;;5.53;4.53;;;;;;;;;;4990675;28;20141;-60
2023/08/13 07:51:52;;;;;;;6.63;4.63;;;;;;;;;;4991014;28;20047;-60
2023/08/13 07:54:19;;;;;;;6.57;4.68;;;;;;;;;;4990415;28;20058;-60
2023/08/13 07:56:48;;;;;;;7.03;4.78;;;;;;;;;;4991703;28;20105;-60
2023/08/13 07:59:14;;;;;;;6.65;4.78;;;;;;;;;;4991160;28;20042;-59
2023/08/13 08:01:42;;;;;;;7.55;4.90;;;;;;;;;;4991238;28;20058;-59
2023/08/13 08:04:08;;;;;;;6.53;4.53;;;;;;;;;;4992163;28;20058;-59
2023/08/13 08:06:35;;;;;;;6.35;4.72;;;;;;;;;;4991706;28;20085;-60
2023/08/13 08:09:02;;;;;;;7.60;4.95;;;;;;;;;;4992957;28;20519;-59
2023/08/13 08:11:29;;;;;;;6.75;5.28;;;;;;;;;;4992585;28;20123;-60
2023/08/13 08:13:57;;;;;;;6.05;4.45;;;;;;;;;;4992948;28;20470;-60
2023/08/13 08:16:24;;;;;;;6.60;4.40;;;;;;;;;;4992979;28;20053;-59
2023/08/13 08:18:51;;;;;;;6.53;4.90;;;;;;;;;;4992842;28;20611;-60
2023/08/13 08:21:17;;;;;;;5.75;4.45;;;;;;;;;;4987951;28;20525;-60
2023/08/13 08:23:44;;;;;;;5.85;4.00;;;;;;;;;;4992285;28;20054;-60
2023/08/13 08:26:11;;;;;;;6.05;4.25;;;;;;;;;;4992620;28;20133;-60
2023/08/13 08:28:37;;;;;;;5.60;4.22;;;;;;;;;;4989083;28;20077;-59
2023/08/13 08:31:05;;;;;;;6.53;4.90;;;;;;;;;;4985732;28;20054;-60
2023/08/13 08:33:32;;;;;;;6.47;4.32;;;;;;;;;;4991422;28;20176;-60
2023/08/13 08:35:59;;;;;;;5.53;4.38;;;;;;;;;;4991004;28;20132;-58
2023/08/13 08:38:25;;;;;;;5.15;4.47;;;;;;;;;;4990277;28;20081;-60
2023/08/13 08:40:53;;;;;;;6.50;4.18;;;;;;;;;;4988952;28;20153;-59
2023/08/13 08:43:20;;;;;;;5.55;4.43;;;;;;;;;;4987499;28;20054;-60
2023/08/13 08:45:48;;;;;;;6.32;4.53;;;;;;;;;;4989480;28;20075;-59
2023/08/13 08:48:17;;;;;;;5.97;4.03;;;;;;;;;;4992411;28;20480;-58
2023/08/13 08:50:44;;;;;;;4.88;4.00;;;;;;;;;;4992682;28;20491;-59
2023/08/13 08:53:11;;;;;;;6.30;4.32;;;;;;;;;;4991744;28;20334;-60
2023/08/13 08:55:38;;;;;;;5.72;4.40;;;;;;;;;;4991662;28;20074;-59
2023/08/13 08:58:05;;;;;;;5.97;4.60;;;;;;;;;;4989597;28;20130;-59
2023/08/13 09:00:32;;;;;;;5.57;4.47;;;;;;;;;;4989409;28;20049;-60
2023/08/13 09:02:58;;;;;;;6.63;4.35;;;;;;;;;;4991038;28;20125;-61
2023/08/13 09:05:27;;;;;;;5.72;4.25;;;;;;;;;;4991989;28;20050;-59
2023/08/13 09:07:54;;;;;;;5.65;4.63;;;;;;;;;;4990805;28;20054;-60
2023/08/13 09:10:21;;;;;;;7.20;4.20;;;;;;;;;;4991200;28;20054;-59
2023/08/13 09:12:52;;;;;;;8.93;4.60;;;;;;;;;;4990661;28;20552;-59
2023/08/13 09:15:19;;;;;;;6.32;4.57;;;;;;;;;;4989618;28;20054;-61
2023/08/13 09:17:46;;;;;;;5.72;4.55;;;;;;;;;;4990410;28;20062;-59
2023/08/13 09:20:17;;;;;;;6.18;4.53;;;;;;;;;;4990036;28;20054;-59
2023/08/13 09:22:47;;;;;;;6.57;4.50;;;;;;;;;;4989243;28;20072;-58
2023/08/13 09:25:15;;;;;;;6.73;4.57;;;;;;;;;;4988803;28;20149;-60
2023/08/13 09:27:42;;;;;;;6.65;5.22;;;;;;;;;;4987842;28;20773;-60
2023/08/13 09:30:12;;;;;;;6.60;4.60;;;;;;;;;;4989200;28;20105;-60
2023/08/13 09:32:39;;;;;;;7.93;4.82;;;;;;;;;;4985634;28;20051;-61
2023/08/13 09:35:06;;;;;;;7.40;4.88;;;;;;;;;;4989541;28;20101;-61
2023/08/13 09:37:33;;;;;;;5.88;4.95;;;;;;;;;;4988841;28;20161;-59
2023/08/13 09:40:01;;;;;;;6.05;4.55;;;;;;;;;;4991211;28;20062;-59
2023/08/13 09:42:32;;;;;;;5.57;4.53;;;;;;;;;;4995330;28;20478;-60
2023/08/13 09:45:00;;;;;;;5.95;5.18;;;;;;;;;;4995361;28;20054;-60
2023/08/13 09:47:28;;;;;;;6.65;4.18;;;;;;;;;;4995635;28;20514;-61
2023/08/13 09:49:57;;;;;;;5.55;4.50;;;;;;;;;;4995050;28;20038;-59
2023/08/13 09:52:28;;;;;;;5.80;4.43;;;;;;;;;;4995375;28;20049;-58
2023/08/13 09:55:04;;;;;;;5.88;4.75;;;;;;;;;;4995176;28;20137;-59
2023/08/13 09:57:33;;;;;;;6.28;5.03;;;;;;;;;;4995838;28;20415;-57
2023/08/13 10:00:02;;;;;;;5.90;4.57;;;;;;;;;;4995606;28;20042;-58
2023/08/13 10:02:30;;;;;;;7.00;4.80;;;;;;;;;;4995330;28;20050;-58
2023/08/13 10:04:57;;;;;;;5.68;4.40;;;;;;;;;;4994422;28;20046;-59
2023/08/13 10:07:25;;;;;;;7.85;5.25;;;;;;;;;;4993917;28;20133;-59
2023/08/13 10:09:53;;;;;;;5.78;5.20;;;;;;;;;;4994257;28;20046;-58
2023/08/13 10:12:23;;;;;;;6.75;4.80;;;;;;;;;;4994544;28;20051;-59
2023/08/13 10:14:50;;;;;;;5.60;4.50;;;;;;;;;;4993084;28;20491;-59
2023/08/13 10:17:19;;;;;;;7.15;4.78;;;;;;;;;;4994952;28;20069;-59
2023/08/13 10:19:50;;;;;;;6.77;5.37;;;;;;;;;;4993684;28;20046;-59
2023/08/13 10:22:24;;;;;;;7.68;4.72;;;;;;;;;;4993029;28;20046;-58
2023/08/13 10:24:51;;;;;;;6.60;4.93;;;;;;;;;;4990008;28;20073;-59
2023/08/13 10:27:23;;;;;;;7.88;5.35;;;;;;;;;;4993554;28;20046;-59
2023/08/13 10:29:50;;;;;;;6.50;4.85;;;;;;;;;;4992498;28;20058;-59
2023/08/13 10:32:17;;;;;;;7.10;4.75;;;;;;;;;;4991560;28;20054;-60
2023/08/13 10:34:47;;;;;;;7.35;4.43;;;;;;;;;;4993518;28;20044;-57
2023/08/13 10:37:15;;;;;;;;;;;;;;;;;;4986617;28;20534;-57
2023/08/13 10:39:43;;;;;;;7.72;4.85;;;;;;;;;;4992004;28;19947;-60
2023/08/13 10:42:49;;;;;;;7.70;5.38;;;;;;;;;;4994756;28;20049;-60
2023/08/13 10:45:17;;;;;;;6.47;4.80;;;;;;;;;;4992448;28;20054;-64
2023/08/13 10:47:49;;;;;;;6.35;4.78;;;;;;;;;;4990943;28;20050;-66
2023/08/13 10:50:21;;;;;;;7.72;5.28;;;;;;;;;;4989071;28;20124;-63
2023/08/13 10:52:48;;;;;;;12.23;7.32;;;;;;;;;;4989849;28;20050;-62
2023/08/13 10:55:18;;;;;;;7.05;5.38;;;;;;;;;;4992686;28;20471;-57
2023/08/13 10:57:51;;;;;;;8.65;5.35;;;;;;;;;;4992913;28;20104;-60
2023/08/13 11:00:19;;;;;;;8.90;6.40;;;;;;;;;;4993013;28;20047;-59
2023/08/13 11:02:46;;;;;;;20.02;13.30;;;;;;;;;;4990538;28;20049;-60
2023/08/13 11:05:13;;;;;;;7.50;6.15;;;;;;;;;;4991554;28;20254;-61
2023/08/13 11:07:39;;;;;;;14.50;10.48;;;;;;;;;;4993439;28;20042;-59
2023/08/13 11:10:08;;;;;;;21.00;13.25;;;;;;;;;;4987990;28;20141;-60
2023/08/13 11:12:35;;;;;;;91.53;50.47;;;;;;;;;;4992106;28;20050;-58
2023/08/13 11:15:03;;;;;;;11.15;7.47;;;;;;;;;;4989640;28;20046;-61
2023/08/13 11:17:30;;;;;;;15.82;9.70;;;;;;;;;;4987313;28;20050;-61
2023/08/13 11:19:57;;;;;;;23.05;14.48;;;;;;;;;;4988990;28;20145;-59
2023/08/13 11:22:25;;;;;;;51.22;28.80;;;;;;;;;;4991959;28;20042;-59
2023/08/13 11:24:52;;;;;;;13.93;8.73;;;;;;;;;;4990417;28;20472;-60
2023/08/13 11:27:19;;;;;;;58.03;36.38;;;;;;;;;;4991514;28;20078;-60
2023/08/13 11:29:46;;;;;;;10.88;7.05;;;;;;;;;;4990655;28;20046;-60
2023/08/13 11:32:14;;;;;;;12.40;7.97;;;;;;;;;;4991934;28;20058;-58
2023/08/13 11:34:41;;;;;;;21.40;15.82;;;;;;;;;;4992138;28;20050;-59
2023/08/13 11:37:08;;;;;;;14.80;10.75;;;;;;;;;;4992828;28;20463;-60
2023/08/13 11:39:35;;;;;;;11.30;8.32;;;;;;;;;;4992948;28;20539;-59
2023/08/13 11:42:08;;;;;;;27.98;17.30;;;;;;;;;;4993056;28;20534;-59
2023/08/13 11:44:35;;;;;;;56.85;33.30;;;;;;;;;;4992860;28;20126;-59
2023/08/13 11:47:04;;;;;;;25.23;16.38;;;;;;;;;;4993097;28;20133;-61
2023/08/13 11:49:40;;;;;;;8.80;7.15;;;;;;;;;;4993045;28;20042;-61
2023/08/13 11:52:07;;;;;;;29.42;19.00;;;;;;;;;;4990725;28;20088;-60
2023/08/13 11:54:35;;;;;;;12.13;8.75;;;;;;;;;;4989275;28;20112;-60
2023/08/13 11:57:03;;;;;;;12.85;9.90;;;;;;;;;;4991659;28;20144;-59
2023/08/13 11:59:30;;;;;;;8.70;7.40;;;;;;;;;;4993067;28;20048;-58
2023/08/13 12:01:58;;;;;;;8.98;6.82;;;;;;;;;;4992329;28;20129;-60
2023/08/13 12:04:25;;;;;;;6.72;5.05;;;;;;;;;;4991444;28;20046;-61
2023/08/13 12:06:53;;;;;;;16.77;11.27;;;;;;;;;;4987306;28;20052;-60
2023/08/13 12:09:20;;;;;;;8.43;6.57;;;;;;;;;;4988619;28;20053;-62
2023/08/13 12:11:47;;;;;;;10.10;7.35;;;;;;;;;;4992813;28;20097;-62
2023/08/13 12:14:14;;;;;;;13.07;7.78;;;;;;;;;;4992787;28;20495;-62
2023/08/13 12:16:40;;;;;;;7.07;5.68;;;;;;;;;;4989320;28;20521;-62
2023/08/13 12:19:07;;;;;;;12.80;8.82;;;;;;;;;;4986903;28;20062;-61
2023/08/13 12:21:35;;;;;;;7.90;5.50;;;;;;;;;;4988233;28;20051;-62
2023/08/13 12:24:05;;;;;;;8.35;6.95;;;;;;;;;;4989318;28;20054;-61
2023/08/13 12:26:32;;;;;;;11.13;6.10;;;;;;;;;;4985324;28;20053;-62
2023/08/13 12:29:01;;;;;;;7.45;5.68;;;;;;;;;;4989878;28;20042;-60
2023/08/13 12:31:29;;;;;;;11.75;7.47;;;;;;;;;;4988858;28;20643;-63
2023/08/13 12:33:56;;;;;;;8.13;6.20;;;;;;;;;;4990593;28;20068;-60
2023/08/13 12:36:23;;;;;;;8.60;6.55;;;;;;;;;;4989648;28;20054;-60
2023/08/13 12:38:50;;;;;;;7.97;5.70;;;;;;;;;;4989028;28;20051;-61
2023/08/13 12:41:18;;;;;;;7.93;6.63;;;;;;;;;;4988159;28;20053;-60
2023/08/13 12:43:47;;;;;;;7.32;5.85;;;;;;;;;;4990085;28;20129;-61
2023/08/13 12:46:14;;;;;;;8.40;5.78;;;;;;;;;;4990533;28;20056;-61
2023/08/13 12:48:40;;;;;;;6.07;5.10;;;;;;;;;;4991114;28;20552;-61
2023/08/13 12:51:07;;;;;;;6.18;5.22;;;;;;;;;;4990473;28;20047;-61
2023/08/13 12:53:34;;;;;;;5.35;4.75;;;;;;;;;;4988226;28;20082;-61
2023/08/13 12:56:04;;;;;;;7.22;5.55;;;;;;;;;;4991430;28;20050;-60
2023/08/13 12:58:33;;;;;;;7.90;5.95;;;;;;;;;;4992470;28;20088;-61
2023/08/13 13:01:00;;;;;;;6.00;5.30;;;;;;;;;;4990762;28;20566;-60
2023/08/13 13:03:26;;;;;;;6.32;4.70;;;;;;;;;;4990866;28;20081;-61
2023/08/13 13:05:53;;;;;;;5.47;4.78;;;;;;;;;;4990010;28;20423;-61
2023/08/13 13:08:20;;;;;;;6.18;5.20;;;;;;;;;;4986590;28;20097;-61
2023/08/13 13:10:47;;;;;;;9.90;5.50;;;;;;;;;;4987501;28;20066;-61
2023/08/13 13:13:13;;;;;;;7.70;5.60;;;;;;;;;;4987635;28;20817;-61
2023/08/13 13:15:42;;;;;;;6.72;5.38;;;;;;;;;;4993537;28;20499;-61
2023/08/13 13:18:08;;;;;;;6.75;5.13;;;;;;;;;;4991115;28;20081;-61
2023/08/13 13:20:36;;;;;;;6.28;5.20;;;;;;;;;;4992210;28;20089;-61
2023/08/13 13:23:03;;;;;;;7.32;5.30;;;;;;;;;;4992893;28;20050;-61
2023/08/13 13:25:30;;;;;;;6.93;5.18;;;;;;;;;;4993025;28;20471;-62
2023/08/13 13:28:00;;;;;;;7.25;5.55;;;;;;;;;;4991716;28;20507;-62
2023/08/13 13:30:29;;;;;;;5.95;4.78;;;;;;;;;;4991680;28;20054;-62
2023/08/13 13:32:57;;;;;;;6.03;4.97;;;;;;;;;;4992258;28;20134;-62
2023/08/13 13:35:24;;;;;;;10.02;5.30;;;;;;;;;;4991761;28;20140;-61
2023/08/13 13:37:51;;;;;;;6.22;4.50;;;;;;;;;;4995500;28;20050;-61
2023/08/13 13:40:18;;;;;;;6.05;4.70;;;;;;;;;;4995880;28;20074;-61
2023/08/13 13:42:44;;;;;;;6.35;5.18;;;;;;;;;;4995807;28;20522;-61
2023/08/13 13:45:11;;;;;;;6.47;4.57;;;;;;;;;;4993669;28;20046;-61
2023/08/13 13:47:38;;;;;;;6.32;4.55;;;;;;;;;;4992867;28;20050;-60
2023/08/13 13:50:06;;;;;;;6.18;5.50;;;;;;;;;;4992374;28;20050;-61
2023/08/13 13:52:33;;;;;;;5.00;4.25;;;;;;;;;;4990608;28;20056;-61
2023/08/13 13:55:00;;;;;;;5.70;4.88;;;;;;;;;;4992090;28;20050;-62
2023/08/13 13:57:27;;;;;;;6.05;4.85;;;;;;;;;;4992968;28;20050;-61
2023/08/13 13:59:54;;;;;;;6.65;4.85;;;;;;;;;;4993245;28;20054;-61
2023/08/13 14:02:21;;;;;;;5.85;5.00;;;;;;;;;;4993371;28;20046;-62
2023/08/13 14:04:48;;;;;;;6.97;5.00;;;;;;;;;;4994144;28;20105;-61
2023/08/13 14:07:16;;;;;;;5.70;4.60;;;;;;;;;;4992996;28;20129;-61
2023/08/13 14:09:43;;;;;;;6.53;5.00;;;;;;;;;;4995405;28;20054;-61
2023/08/13 14:12:10;;;;;;;7.47;4.88;;;;;;;;;;4993806;28;20129;-62
2023/08/13 14:14:36;;;;;;;6.85;4.47;;;;;;;;;;4993923;28;20097;-62
2023/08/13 14:17:04;;;;;;;6.35;4.72;;;;;;;;;;4994064;28;20046;-61
2023/08/13 14:19:30;;;;;;;7.10;4.70;;;;;;;;;;4995059;28;20555;-61
2023/08/13 14:21:57;;;;;;;6.88;4.75;;;;;;;;;;4994194;28;20068;-59
2023/08/13 14:24:26;;;;;;;7.00;4.70;;;;;;;;;;4987407;28;20511;-61
2023/08/13 14:26:53;;;;;;;6.70;4.47;;;;;;;;;;4991245;28;20057;-62
2023/08/13 14:29:20;;;;;;;6.53;4.30;;;;;;;;;;4992049;28;20042;-62
2023/08/13 14:31:46;;;;;;;5.20;4.15;;;;;;;;;;4991750;28;20150;-62
2023/08/13 14:34:13;;;;;;;5.63;4.53;;;;;;;;;;4991486;28;20043;-61
2023/08/13 14:36:40;;;;;;;6.40;4.80;;;;;;;;;;4991092;28;20133;-61
2023/08/13 14:39:07;;;;;;;5.93;4.35;;;;;;;;;;4992999;28;20060;-61
2023/08/13 14:41:35;;;;;;;6.57;4.85;;;;;;;;;;4993263;28;20054;-60